createdAt,value
2023-04-03T00:02:35.000Z,20.32
2023-04-03T00:07:36.000Z,18.97
2023-04-03T00:12:36.000Z,19.15
2023-04-03T00:17:36.000Z,19.41
2023-04-03T00:22:36.000Z,20.19
2023-04-03T00:27:35.000Z,20.19
2023-04-03T00:32:36.000Z,22.21
2023-04-03T00:37:36.000Z,23.01
2023-04-03T00:42:35.000Z,23.04
2023-04-03T00:47:36.000Z,21.28
2023-04-03T00:52:36.000Z,20.87
2023-04-03T00:57:36.000Z,18.81
2023-04-03T01:02:35.000Z,17.07
2023-04-03T01:07:36.000Z,23.47
2023-04-03T01:12:36.000Z,28.56
2023-04-03T01:17:36.000Z,23.91
2023-04-03T01:22:36.000Z,22.9
2023-04-03T01:27:35.000Z,24.4
2023-04-03T01:32:36.000Z,26.61
2023-04-03T01:37:35.000Z,26.61
2023-04-03T01:42:35.000Z,27.57
2023-04-03T01:47:36.000Z,28.41
2023-04-03T01:52:35.000Z,26.89
2023-04-03T01:57:35.000Z,27.35
2023-04-03T02:02:35.000Z,26.07
2023-04-03T02:07:36.000Z,25.83
2023-04-03T02:12:35.000Z,28.8
2023-04-03T02:17:36.000Z,30.1
2023-04-03T02:22:36.000Z,29.36
2023-04-03T02:27:36.000Z,29.95
2023-04-03T02:32:35.000Z,28.95
2023-04-03T02:37:35.000Z,34.3
2023-04-03T02:42:35.000Z,34.03
2023-04-03T02:47:36.000Z,32.55
2023-04-03T02:52:36.000Z,32.55
2023-04-03T02:57:36.000Z,33.97
2023-04-03T03:02:36.000Z,36.41
2023-04-03T03:07:35.000Z,43.72
2023-04-03T03:12:35.000Z,42.61
2023-04-03T03:17:36.000Z,46.46
2023-04-03T03:22:36.000Z,42.23
2023-04-03T03:27:36.000Z,44.85
2023-04-03T03:32:36.000Z,45.77
2023-04-03T03:37:36.000Z,63.69
2023-04-03T03:42:36.000Z,48.79
2023-04-03T03:47:36.000Z,43.3
2023-04-03T03:52:35.000Z,42.41
2023-04-03T03:57:35.000Z,37.61
2023-04-03T04:02:35.000Z,37.61
2023-04-03T04:07:35.000Z,33.93
2023-04-03T04:12:35.000Z,35.27
2023-04-03T04:17:36.000Z,37.4
2023-04-03T04:22:36.000Z,37.26
2023-04-03T04:27:36.000Z,35.07
2023-04-03T04:32:36.000Z,36.61
2023-04-03T04:37:36.000Z,45.26
2023-04-03T04:42:35.000Z,35.72
2023-04-03T04:47:36.000Z,37.59
2023-04-03T04:52:36.000Z,40.17
2023-04-03T04:57:36.000Z,38.33
2023-04-03T05:02:37.000Z,35.61
2023-04-03T05:07:36.000Z,33.95
2023-04-03T05:12:35.000Z,31.35
2023-04-03T05:17:35.000Z,31.35
2023-04-03T05:22:35.000Z,31.74
2023-04-03T05:27:36.000Z,29.34
2023-04-03T05:32:35.000Z,34.8
2023-04-03T05:37:36.000Z,33.34
2023-04-03T05:42:36.000Z,33.26
2023-04-03T05:47:36.000Z,29.84
2023-04-03T05:52:35.000Z,26.25
2023-04-03T05:57:36.000Z,25.63
2023-04-03T06:02:36.000Z,21.35
2023-04-03T06:07:35.000Z,22.7
2023-04-03T06:12:36.000Z,20.97
2023-04-03T06:17:35.000Z,20.89
2023-04-03T06:22:36.000Z,21.44
2023-04-03T06:27:35.000Z,21.44
2023-04-03T06:32:36.000Z,22.2
2023-04-03T06:37:36.000Z,25.68
2023-04-03T06:42:37.000Z,30.15
2023-04-03T06:47:36.000Z,28.29
2023-04-03T06:52:36.000Z,26.53
2023-04-03T06:57:35.000Z,27.72
2023-04-03T07:02:35.000Z,31.04
2023-04-03T07:07:36.000Z,27.07
2023-04-03T07:12:35.000Z,28.06
2023-04-03T07:17:35.000Z,34.47
2023-04-03T07:22:36.000Z,34.89
2023-04-03T07:27:35.000Z,32.86
2023-04-03T07:32:36.000Z,34.43
2023-04-03T07:37:35.000Z,34.43
2023-04-03T07:42:36.000Z,29.3
2023-04-03T07:47:35.000Z,31.22
2023-04-03T07:52:36.000Z,32.09
2023-04-03T07:57:36.000Z,29.86
2023-04-03T08:02:35.000Z,26.69
2023-04-03T08:07:35.000Z,26.55
2023-04-03T08:12:36.000Z,25.92
2023-04-03T08:17:36.000Z,28.12
2023-04-03T08:22:35.000Z,28.88
2023-04-03T08:27:36.000Z,31.99
2023-04-03T08:32:36.000Z,33.74
2023-04-03T08:37:35.000Z,32.97
2023-04-03T08:42:36.000Z,36.59
2023-04-03T08:47:37.000Z,34.42
2023-04-03T08:52:35.000Z,34.42
2023-04-03T08:57:36.000Z,34.88
2023-04-03T09:02:36.000Z,21.84
2023-04-03T09:07:37.000Z,22.18
2023-04-03T09:12:35.000Z,22.68
2023-04-03T09:17:36.000Z,23.15
2023-04-03T09:22:36.000Z,22.27
2023-04-03T09:27:36.000Z,24.46
2023-04-03T09:32:35.000Z,25.44
2023-04-03T09:37:36.000Z,24.61
2023-04-03T09:42:35.000Z,24.24
2023-04-03T09:47:35.000Z,24
2023-04-03T09:52:35.000Z,24.75
2023-04-03T09:57:36.000Z,27.41
2023-04-03T10:02:35.000Z,24.91
2023-04-03T10:07:36.000Z,24.91
2023-04-03T10:12:35.000Z,28.09
2023-04-03T10:17:36.000Z,27.65
2023-04-03T10:22:36.000Z,26.96
2023-04-03T10:27:37.000Z,26.67
2023-04-03T10:32:35.000Z,24.78
2023-04-03T10:37:36.000Z,24.24
2023-04-03T10:42:36.000Z,22.77
2023-04-03T10:47:36.000Z,22.48
2023-04-03T10:52:35.000Z,22.2
2023-04-03T10:57:36.000Z,23.68
2023-04-03T11:02:39.000Z,22.76
2023-04-03T11:07:35.000Z,23.06
2023-04-03T11:12:35.000Z,23.06
2023-04-03T11:17:36.000Z,21.91
2023-04-03T11:22:35.000Z,22.23
2023-04-03T11:27:36.000Z,18.69
2023-04-03T11:32:36.000Z,18.67
2023-04-03T11:37:36.000Z,18.75
2023-04-03T11:42:36.000Z,18
2023-04-03T11:47:36.000Z,19.08
2023-04-03T11:52:35.000Z,18.18
2023-04-03T11:57:36.000Z,18.13
2023-04-03T12:02:36.000Z,16.81
2023-04-03T12:07:35.000Z,17.82
2023-04-03T12:12:36.000Z,17.77
2023-04-03T12:17:35.000Z,19.39
2023-04-03T12:22:35.000Z,21.76
2023-04-03T12:27:35.000Z,21.76
2023-04-03T12:32:35.000Z,22.04
2023-04-03T12:37:36.000Z,21.77
2023-04-03T12:42:35.000Z,19.75
2023-04-03T12:47:36.000Z,19.15
2023-04-03T12:52:36.000Z,17.53
2023-04-03T12:57:35.000Z,18.58
2023-04-03T13:02:35.000Z,19.52
2023-04-03T13:07:37.000Z,19.26
2023-04-03T13:12:38.000Z,20.91
2023-04-03T13:17:37.000Z,22.11
2023-04-03T13:22:36.000Z,20.18
2023-04-03T13:27:35.000Z,19.78
2023-04-03T13:32:35.000Z,21.45
2023-04-03T13:37:37.000Z,19.11
2023-04-03T13:42:36.000Z,19.11
2023-04-03T13:47:36.000Z,18.32
2023-04-03T13:52:36.000Z,18.85
2023-04-03T13:57:36.000Z,19.59
2023-04-03T14:02:36.000Z,20.44
2023-04-03T14:07:35.000Z,20.23
2023-04-03T14:12:42.000Z,20.09
2023-04-03T14:17:36.000Z,20.74
2023-04-03T14:22:36.000Z,22.06
2023-04-03T14:27:36.000Z,23.34
2023-04-03T14:32:36.000Z,23.94
2023-04-03T14:37:35.000Z,24.28
2023-04-03T14:42:35.000Z,28.03
2023-04-03T14:47:42.000Z,27.39
2023-04-03T14:52:36.000Z,27.39
2023-04-03T14:57:35.000Z,27.35
2023-04-03T15:02:36.000Z,25.73
2023-04-03T15:07:35.000Z,26.42
2023-04-03T15:12:35.000Z,22.95
2023-04-03T15:17:36.000Z,27.09
2023-04-03T15:22:36.000Z,31.8
2023-04-03T15:27:36.000Z,29.6
2023-04-03T15:32:36.000Z,29.75
2023-04-03T15:37:36.000Z,31.79
2023-04-03T15:42:35.000Z,32.97
2023-04-03T15:47:36.000Z,35.62
2023-04-03T15:52:36.000Z,39.31
2023-04-03T16:02:36.000Z,40.35
2023-04-03T16:07:36.000Z,44.43
2023-04-03T16:12:35.000Z,39.07
2023-04-03T16:17:35.000Z,36.99
2023-04-03T16:22:35.000Z,44.05
2023-04-03T16:27:37.000Z,37.04
2023-04-03T16:32:36.000Z,39.56
2023-04-03T16:37:38.000Z,45.1
2023-04-03T16:42:36.000Z,33.2
2023-04-03T16:47:35.000Z,31.97
2023-04-03T16:52:36.000Z,31.59
2023-04-03T16:57:36.000Z,32.66
2023-04-03T17:02:36.000Z,30.84
2023-04-03T17:07:37.000Z,31.71
2023-04-03T17:12:35.000Z,31.71
2023-04-03T17:17:36.000Z,30.59
2023-04-03T17:22:36.000Z,30.43
2023-04-03T17:27:36.000Z,33.04
2023-04-03T17:32:37.000Z,35.39
2023-04-03T17:37:35.000Z,34.14
2023-04-03T17:42:35.000Z,35.45
2023-04-03T17:47:36.000Z,36.83
2023-04-03T17:52:35.000Z,37.28
2023-04-03T17:57:36.000Z,38.17
2023-04-03T18:02:35.000Z,52.83
2023-04-03T18:07:36.000Z,61.32
2023-04-03T18:12:35.000Z,60.75
2023-04-03T18:17:36.000Z,57.65
2023-04-03T18:22:36.000Z,53.08
2023-04-03T18:27:36.000Z,53.08
2023-04-03T18:32:35.000Z,52.71
2023-04-03T18:37:35.000Z,55.68
2023-04-03T18:42:36.000Z,50.28
2023-04-03T18:47:35.000Z,43.48
2023-04-03T18:52:40.000Z,41.93
2023-04-03T18:57:36.000Z,42.42
2023-04-03T19:02:36.000Z,38.01
2023-04-03T19:07:36.000Z,41.39
2023-04-03T19:12:36.000Z,41.86
2023-04-03T19:17:36.000Z,48.08
2023-04-03T19:22:35.000Z,43.29
2023-04-03T19:27:35.000Z,37.67
2023-04-03T19:32:36.000Z,37.42
2023-04-03T19:37:35.000Z,37.42
2023-04-03T19:42:35.000Z,38.12
2023-04-03T19:47:36.000Z,35.94
2023-04-03T19:52:36.000Z,33.6
2023-04-03T19:57:35.000Z,33.27
2023-04-03T20:02:35.000Z,31.75
2023-04-03T20:07:36.000Z,32.12
2023-04-03T20:12:35.000Z,28.04
2023-04-03T20:17:36.000Z,26.86
2023-04-03T20:22:36.000Z,26.82
2023-04-03T20:27:35.000Z,29.07
2023-04-03T20:32:35.000Z,27.44
2023-04-03T20:37:36.000Z,27.4
2023-04-03T20:42:36.000Z,26.08
2023-04-03T20:47:36.000Z,26.08
2023-04-03T20:52:35.000Z,29.08
2023-04-03T20:57:36.000Z,29.53
2023-04-03T21:02:36.000Z,27.72
2023-04-03T21:07:35.000Z,27.57
2023-04-03T21:12:36.000Z,29.73
2023-04-03T21:17:35.000Z,29.92
2023-04-03T21:22:35.000Z,31.21
2023-04-03T21:27:35.000Z,31.15
2023-04-03T21:32:36.000Z,31.5
2023-04-03T21:37:35.000Z,30.94
2023-04-03T21:42:35.000Z,30.16
2023-04-03T21:47:39.000Z,29.72
2023-04-03T21:52:35.000Z,28.75
2023-04-03T21:57:36.000Z,28.75
2023-04-03T22:02:36.000Z,30.65
2023-04-03T22:07:36.000Z,29.17
2023-04-03T22:12:35.000Z,30.8
2023-04-03T22:17:35.000Z,34.27
2023-04-03T22:22:36.000Z,28.32
2023-04-03T22:27:36.000Z,28.25
2023-04-03T22:32:36.000Z,30
2023-04-03T22:37:36.000Z,28.79
2023-04-03T22:42:35.000Z,27.52
2023-04-03T22:47:35.000Z,27.5
2023-04-03T22:52:36.000Z,27.66
2023-04-03T22:57:36.000Z,25.82
2023-04-03T23:02:36.000Z,27.81
2023-04-03T23:07:35.000Z,27.81
2023-04-03T23:12:36.000Z,27.13
2023-04-03T23:17:35.000Z,25.11
2023-04-03T23:22:36.000Z,25.1
2023-04-03T23:27:36.000Z,24.92
2023-04-03T23:32:35.000Z,24.92
2023-04-03T23:37:35.000Z,24.8
2023-04-03T23:42:35.000Z,28.22
2023-04-03T23:47:36.000Z,32.68
2023-04-03T23:52:36.000Z,25.14
2023-04-03T23:57:35.000Z,25.47
